createdAt,value
2019-05-07T00:02:03.499Z,54001.96
2019-05-07T00:07:22.508Z,54039.30
2019-05-07T00:12:43.128Z,54006.00
2019-05-07T00:18:03.166Z,54010.04
2019-05-07T00:23:23.164Z,54004.99
2019-05-07T00:28:43.240Z,54007.01
2019-05-07T00:34:02.884Z,54030.22
2019-05-07T00:39:32.844Z,54032.24
2019-05-07T00:45:14.220Z,54025.18
2019-05-07T00:50:23.987Z,54049.40
2019-05-07T00:55:42.637Z,54038.30
2019-05-07T01:01:02.571Z,54041.32
2019-05-07T01:06:22.773Z,54029.21
2019-05-07T01:11:42.892Z,54025.18
2019-05-07T01:17:02.434Z,54038.30
2019-05-07T01:22:22.219Z,54001.96
2019-05-07T01:27:42.658Z,54042.34
2019-05-07T01:33:15.044Z,54038.30
2019-05-07T01:38:34.757Z,54008.02
2019-05-07T01:43:54.786Z,54028.20
2019-05-07T01:49:13.462Z,54021.14
2019-05-07T01:54:33.278Z,54007.01
2019-05-07T01:59:52.859Z,54031.23
2019-05-07T02:05:13.331Z,54035.27
2019-05-07T02:10:34.839Z,54039.30
2019-05-07T02:16:00.162Z,54033.25
2019-05-07T02:21:14.143Z,54036.28
2019-05-07T02:26:32.782Z,54047.38
2019-05-07T02:31:53.107Z,54024.17
2019-05-07T02:37:13.398Z,54019.12
2019-05-07T02:42:33.592Z,54046.37
2019-05-07T02:47:52.656Z,54009.03
2019-05-07T02:53:29.189Z,54018.11
2019-05-07T02:58:47.754Z,54014.07
2019-05-07T03:04:06.861Z,54033.25
2019-05-07T03:09:25.440Z,54031.23
2019-05-07T03:14:44.120Z,54019.12
2019-05-07T03:20:04.410Z,54006.00
2019-05-07T03:25:24.690Z,54028.20
2019-05-07T03:30:46.017Z,54017.10
2019-05-07T03:36:07.779Z,54036.28
2019-05-07T03:41:27.335Z,54016.09
2019-05-07T03:46:57.846Z,54016.09
2019-05-07T03:52:06.777Z,53987.83
2019-05-07T03:57:25.510Z,53992.88
2019-05-07T04:02:44.252Z,54018.11
2019-05-07T04:08:03.519Z,54008.02
2019-05-07T04:13:24.002Z,53995.91
2019-05-07T04:18:43.678Z,54002.97
2019-05-07T04:24:13.824Z,54003.98
2019-05-07T04:29:35.100Z,53995.91
2019-05-07T04:41:15.078Z,54011.05
2019-05-07T04:46:33.898Z,54039.30
2019-05-07T04:51:54.472Z,53999.95
2019-05-07T04:57:26.064Z,54015.08
2019-05-07T05:02:53.135Z,54045.36
2019-05-07T05:08:13.350Z,54047.38
2019-05-07T05:13:33.309Z,54067.57
2019-05-07T05:18:52.540Z,54046.37
2019-05-07T05:24:16.199Z,54050.41
2019-05-07T05:29:36.311Z,54065.55
2019-05-07T05:34:56.948Z,54034.26
2019-05-07T05:40:15.966Z,54085.73
2019-05-07T05:45:39.426Z,54088.76
2019-05-07T05:51:02.785Z,54045.36
2019-05-07T05:56:32.661Z,54089.77
2019-05-07T06:02:03.399Z,54057.47
2019-05-07T06:07:31.769Z,54052.43
2019-05-07T06:12:52.286Z,54045.36
2019-05-07T06:18:20.947Z,54048.39
2019-05-07T06:23:34.554Z,54064.54
2019-05-07T06:28:53.198Z,54044.35
2019-05-07T06:34:12.500Z,54085.73
2019-05-07T06:39:35.946Z,54029.21
2019-05-07T06:45:12.463Z,54076.65
2019-05-07T06:50:32.721Z,54060.50
2019-05-07T06:55:52.126Z,54079.68
2019-05-07T07:01:12.360Z,54071.60
2019-05-07T07:06:35.816Z,54083.71
2019-05-07T07:11:56.079Z,54123.08
2019-05-07T07:17:14.725Z,54098.86
2019-05-07T07:22:33.429Z,54111.97
2019-05-07T07:27:52.185Z,54062.52
2019-05-07T07:33:12.460Z,54054.45
2019-05-07T07:38:35.284Z,54063.53
2019-05-07T07:43:53.904Z,54049.40
2019-05-07T07:49:15.128Z,54053.43
2019-05-07T07:54:33.014Z,54120.05
2019-05-07T07:59:55.640Z,54063.53
2019-05-07T08:05:14.517Z,54054.45
2019-05-07T08:10:33.213Z,54084.72
2019-05-07T08:15:52.112Z,54079.68
2019-05-07T08:21:12.033Z,54073.62
2019-05-07T08:26:32.293Z,54095.82
2019-05-07T08:32:09.134Z,54044.35
2019-05-07T08:37:27.836Z,54073.62
2019-05-07T08:42:46.457Z,54031.23
2019-05-07T08:48:06.861Z,54047.38
2019-05-07T08:53:25.502Z,54055.45
2019-05-07T08:58:44.210Z,54069.58
2019-05-07T09:04:02.903Z,54068.57
2019-05-07T09:09:22.311Z,54067.57
2019-05-07T09:14:42.553Z,54033.25
2019-05-07T09:20:02.546Z,54081.70
2019-05-07T09:25:22.305Z,54075.64
2019-05-07T09:30:57.666Z,54053.43
2019-05-07T09:36:17.952Z,54091.79
2019-05-07T09:41:36.562Z,54049.40
2019-05-07T09:46:55.185Z,54080.68
2019-05-07T09:52:13.767Z,54074.63
2019-05-07T09:57:34.780Z,54049.40
2019-05-07T10:02:52.988Z,54061.51
2019-05-07T10:08:12.885Z,54061.51
2019-05-07T10:13:33.329Z,54110.96
2019-05-07T10:18:52.103Z,54031.23
2019-05-07T10:24:12.870Z,54030.22
2019-05-07T10:29:32.198Z,54061.51
2019-05-07T10:34:52.522Z,54062.52
2019-05-07T10:40:12.400Z,54029.21
2019-05-07T10:45:35.601Z,54071.60
2019-05-07T10:50:55.863Z,54043.34
2019-05-07T10:56:14.575Z,54051.42
2019-05-07T11:01:38.574Z,54051.42
2019-05-07T11:06:58.998Z,54040.31
2019-05-07T11:12:17.617Z,54039.30
2019-05-07T11:17:52.085Z,54070.59
2019-05-07T11:23:10.833Z,54048.39
2019-05-07T11:28:29.482Z,54051.42
2019-05-07T11:33:48.414Z,54065.55
2019-05-07T11:39:07.679Z,54027.20
2019-05-07T11:44:27.978Z,54059.49
2019-05-07T11:50:04.740Z,54071.60
2019-05-07T11:55:23.459Z,54063.53
2019-05-07T12:01:03.424Z,54053.43
2019-05-07T12:06:21.680Z,54054.45
2019-05-07T12:11:42.497Z,54061.51
2019-05-07T12:17:02.690Z,54062.52
2019-05-07T12:22:23.099Z,54062.52
2019-05-07T12:27:41.977Z,54054.45
2019-05-07T12:33:02.427Z,54056.46
2019-05-07T12:38:21.882Z,54084.72
2019-05-07T12:43:42.337Z,54049.40
2019-05-07T12:49:03.087Z,54056.46
2019-05-07T12:54:39.472Z,54073.62
2019-05-07T13:00:01.958Z,54066.56
2019-05-07T13:05:20.229Z,54076.65
2019-05-07T13:10:38.876Z,54076.65
2019-05-07T13:15:57.643Z,54062.52
2019-05-07T13:21:16.307Z,54030.22
2019-05-07T13:26:35.015Z,54060.50
2019-05-07T13:31:55.791Z,54064.54
2019-05-07T13:37:19.271Z,54054.45
2019-05-07T13:42:43.982Z,54062.52
2019-05-07T13:48:04.145Z,54066.56
2019-05-07T13:53:22.999Z,54065.55
2019-05-07T13:58:42.838Z,54064.54
2019-05-07T14:04:03.989Z,54034.26
2019-05-07T14:09:24.440Z,54068.57
2019-05-07T14:14:43.346Z,54072.61
2019-05-07T14:20:04.929Z,54070.59
2019-05-07T14:25:24.122Z,54055.45
2019-05-07T14:30:42.997Z,54080.68
2019-05-07T14:36:03.281Z,54050.41
2019-05-07T14:41:25.310Z,54057.47
2019-05-07T14:46:50.350Z,54066.56
2019-05-07T14:52:03.274Z,54075.64
2019-05-07T14:57:22.279Z,54042.34
2019-05-07T15:02:42.217Z,54035.27
2019-05-07T15:08:10.727Z,54109.96
2019-05-07T15:13:21.861Z,54077.66
2019-05-07T15:18:43.562Z,54030.22
2019-05-07T15:24:02.976Z,54049.40
2019-05-07T15:29:22.352Z,54042.34
2019-05-07T15:34:42.134Z,54040.31
2019-05-07T15:40:02.466Z,54071.60
2019-05-07T15:45:21.724Z,54046.37
2019-05-07T15:50:42.719Z,54021.14
2019-05-07T15:56:01.792Z,54034.26
2019-05-07T16:01:22.183Z,54032.24
2019-05-07T16:06:42.491Z,54029.21
2019-05-07T16:12:01.617Z,54039.30
2019-05-07T16:17:27.751Z,54058.48
2019-05-07T16:22:54.820Z,54047.38
2019-05-07T16:28:12.752Z,54049.40
2019-05-07T16:33:34.746Z,54069.58
2019-05-07T16:38:53.576Z,54012.05
2019-05-07T16:44:12.438Z,54053.43
2019-05-07T16:49:37.215Z,54048.39
2019-05-07T16:54:55.844Z,54049.40
2019-05-07T17:00:17.862Z,54047.38
2019-05-07T17:05:36.488Z,54053.43
2019-05-07T17:10:55.300Z,54048.39
2019-05-07T17:16:14.425Z,54074.63
2019-05-07T17:21:33.140Z,54042.34
2019-05-07T17:26:51.888Z,54030.22
2019-05-07T17:32:12.295Z,54061.51
2019-05-07T17:37:33.003Z,54050.41
2019-05-07T17:42:52.465Z,54025.18
2019-05-07T17:48:12.351Z,54042.34
2019-05-07T17:53:31.994Z,54032.24
2019-05-07T17:58:52.251Z,54056.46
2019-05-07T18:04:10.990Z,54040.31
2019-05-07T18:09:31.739Z,54040.31
2019-05-07T18:14:52.668Z,54020.13
2019-05-07T18:20:12.881Z,54031.23
2019-05-07T18:25:32.516Z,54044.35
2019-05-07T18:30:51.252Z,54011.05
2019-05-07T18:36:12.001Z,54025.18
2019-05-07T18:41:32.559Z,54036.28
2019-05-07T18:46:52.686Z,54033.25
2019-05-07T18:52:12.203Z,54024.17
2019-05-07T18:57:32.808Z,54006.00
2019-05-07T19:02:53.288Z,54018.11
2019-05-07T19:08:12.698Z,54021.14
2019-05-07T19:13:32.617Z,53978.75
2019-05-07T19:18:51.433Z,53965.63
2019-05-07T19:24:10.244Z,54009.03
2019-05-07T19:29:33.227Z,53997.93
2019-05-07T19:34:53.427Z,54027.20
2019-05-07T19:40:13.013Z,53973.70
2019-05-07T19:45:31.711Z,53971.68
2019-05-07T19:50:52.657Z,53988.84
2019-05-07T19:56:18.830Z,53983.80
2019-05-07T20:01:39.286Z,53976.73
2019-05-07T20:06:59.300Z,53988.84
2019-05-07T20:12:18.842Z,53988.84
2019-05-07T20:17:37.531Z,54000.95
2019-05-07T20:23:06.631Z,53997.93
2019-05-07T20:28:25.274Z,53998.93
2019-05-07T20:33:44.132Z,53966.64
2019-05-07T20:39:04.775Z,54002.97
2019-05-07T20:44:23.509Z,53989.85
2019-05-07T20:49:42.859Z,53990.86
2019-05-07T20:55:03.161Z,54021.14
2019-05-07T21:00:23.674Z,54009.03
2019-05-07T21:05:42.351Z,53994.90
2019-05-07T21:11:02.561Z,53979.76
2019-05-07T21:16:22.189Z,53981.78
2019-05-07T21:21:42.223Z,53976.73
2019-05-07T21:27:02.565Z,53951.50
2019-05-07T21:32:23.138Z,53972.70
2019-05-07T21:37:41.920Z,53991.87
2019-05-07T21:43:00.564Z,53997.93
2019-05-07T21:48:19.141Z,53983.80
2019-05-07T21:53:39.428Z,53951.50
2019-05-07T21:59:03.095Z,53989.85
2019-05-07T22:04:21.980Z,53963.61
2019-05-07T22:09:40.599Z,53986.82
2019-05-07T22:14:59.151Z,53987.83
2019-05-07T22:20:17.869Z,54010.04
2019-05-07T22:25:36.432Z,54028.20
2019-05-07T22:30:56.631Z,53995.91
2019-05-07T22:36:15.348Z,53994.90
2019-05-07T22:41:33.916Z,53991.87
2019-05-07T22:46:52.855Z,54016.09
2019-05-07T22:52:12.770Z,54038.30
2019-05-07T22:57:48.287Z,53984.80
2019-05-07T23:03:06.848Z,53974.71
2019-05-07T23:08:25.480Z,53971.68
2019-05-07T23:13:44.237Z,54016.09
2019-05-07T23:19:02.802Z,53995.91
2019-05-07T23:24:22.695Z,54014.07
2019-05-07T23:29:43.773Z,53989.85
2019-05-07T23:35:02.275Z,53987.83
2019-05-07T23:40:28.345Z,54020.13
2019-05-07T23:45:47.043Z,54023.16
2019-05-07T23:51:05.607Z,54029.21
2019-05-07T23:56:24.441Z,54009.03
